Pagina principale
METAR-TAF:

METAR-TAF

Aeroporti :

Koror, Babeldaob, Palau

Aeroporto Internazionale di Palau

latitudine: 07-22N, longitudine: 134-32E, altezza: 54 m

Osservazione

Il bollettino è stato emesso 36 minuti fa, alle 20:50 UTC
Vento 3 kt da est/nord-est
Temperature 25°C
Umidità 89%
Pressione 1010 hPa
Visibilità: 22.5 km
Nubi sparse ad un'altezza di 1600 ft, Cumulonembo.
Nuvoloso ad un'altezza di 12000 ft
Cielo coperto ad un'altezza di 30000 ft

METAR: PTRO 242050Z 06003KT 14SM SCT016CB BKN120 OVC300 25/23 A2982 RMK CB ALQDS

Ora: 06:26 (21:26 UTC)

Previsione

Il bollettino è stato emesso 3 ore e 51 minuti fa, alle 17:35 UTC
Previsione valida dal 24 alle 18 UTC al 25 alle 18 UTC
Vento 5 kt da direzioni variabili
Visibilità: 10 km
Nubi sparse ad un'altezza di 1600 ft
Nuvoloso ad un'altezza di 12000 ft
rovesci nelle vicinanze

TAF: PTRO 241735Z 2418/2518 VRB05KT P6SM VCSH SCT016 BKN120

Osservazioni e previsioni meteorologiche di più di 4000 aeroporti (messaggi METAR e TAF).

Le stazioni disponibili sono rappresentate dai dischi gialli e rossi sulla carta.

Puntare il mouse per vedere il nome della stazione.

Clicca sopra per visualizzare le osservazioni e previsioni meteorologiche.

Per cambiare la mappa : fare clic sui pulsanti verdi con una croce nera per ingrandire, il pulsante verde con un trattino per diminuire, o sulla freccia verde per le mappe adiacenti.


METAR-TAF: